UKLL/LWO METAR and TAF weather

Enter ICAO airport designator
Station Type Date Time Source
UKLL METAR 2021/05/17 22:30 UTC NOAA

UKLL 172230Z VRB01MPS CAVOK 15/10 Q1001 R13/190070 NOSIG


Station Type Date Time Source
UKLL Decoded METAR 2021/05/17 22:30 UTC NOAA

L'Viv, Ukraine (UKLL) 49-49N 023-57E 323M
May 17, 2021 - 06:30 PM EDT / 2021.05.17 2230 UTC
Wind: Variable at 2 MPH (2 KT):0
Visibility: greater than 7 mile(s):0
Temperature: 59 F (15 C)
Dew Point: 50 F (10 C)
Relative Humidity: 72%
Pressure (altimeter): 29.56 in. Hg (1001 hPa)
ob: UKLL 172230Z VRB01MPS CAVOK 15/10 Q1001 R13/190070 NOSIG
cycle: 22

Station Type Date Time Source
UKLL TAF 2021/05/17 18:15 UTC NOAA

TAF UKLL 171703Z 1718/1818 06006MPS 9999 BKN030
TEMPO 1800/1812 VRB07G14MPS 1100 TSRAGR SCT003 BKN007 BKN035CB
TEMPO 1812/1818 31007MPS 2100 -SHRA SCT003 BKN007 BKN030CB

Example: see airport list